Time;durP1;ratioP1;P1;durP2;ratioP2;P2;SDS_P1;SDS_P2;PMS_P1;PMS_P2;Temp;Humidity;BMP_temperature;BMP_pressure;BME280_temperature;BME280_humidity;BME280_pressure;Samples;Min_cycle;Max_cycle;Signal;HPM_P1;HPM_P2
2022/08/10 00:01:17;;;;;;;4.22;2.20;;;;;;;21.82;47.50;96296.28;4907408;29;20231;-83
2022/08/10 00:03:45;;;;;;;3.25;1.88;;;;;;;21.56;47.83;96298.34;4907298;29;20266;-83
2022/08/10 00:06:11;;;;;;;3.65;2.17;;;;;;;21.50;48.24;96296.66;4907671;29;20836;-83
2022/08/10 00:08:38;;;;;;;3.20;2.10;;;;;;;21.49;47.98;96302.91;4907974;29;20211;-83
2022/08/10 00:11:04;;;;;;;3.20;1.85;;;;;;;21.38;48.51;96299.25;4906559;29;20235;-83
2022/08/10 00:13:31;;;;;;;2.80;1.90;;;;;;;21.35;48.30;96296.31;4907198;29;20231;-83
2022/08/10 00:15:57;;;;;;;2.97;2.10;;;;;;;21.30;48.65;96298.78;4907615;29;20206;-83
2022/08/10 00:18:26;;;;;;;2.40;2.20;;;;;;;21.27;48.73;96291.38;4907441;29;20243;-83
2022/08/10 00:20:53;;;;;;;2.92;2.33;;;;;;;21.24;48.95;96290.00;4906671;29;20782;-83
2022/08/10 00:23:20;;;;;;;2.00;1.90;;;;;;;21.19;49.06;96296.91;4906662;29;20287;-83
2022/08/10 00:25:46;;;;;;;2.22;2.05;;;;;;;21.06;49.46;96299.72;4907576;29;20206;-83
2022/08/10 00:28:12;;;;;;;3.85;2.20;;;;;;;20.95;50.00;96296.09;4907182;29;20282;-82
2022/08/10 00:30:39;;;;;;;5.82;2.67;;;;;;;20.95;49.46;96296.88;4906951;29;20223;-81
2022/08/10 00:33:06;;;;;;;2.25;2.05;;;;;;;20.80;50.24;96298.28;4906798;29;20249;-81
2022/08/10 00:35:33;;;;;;;2.13;2.03;;;;;;;20.80;50.25;96300.91;4907011;29;20214;-82
2022/08/10 00:38:00;;;;;;;4.80;2.38;;;;;;;20.74;50.71;96300.00;4907397;29;20687;-84
2022/08/10 00:40:26;;;;;;;3.28;2.10;;;;;;;20.76;50.26;96297.16;4906570;29;20223;-83
2022/08/10 00:42:53;;;;;;;4.70;2.15;;;;;;;20.72;50.70;96286.34;4906228;29;20231;-81
2022/08/10 00:45:19;;;;;;;2.47;2.10;;;;;;;20.64;51.01;96295.28;4907200;29;20210;-81
2022/08/10 00:47:45;;;;;;;2.60;2.22;;;;;;;20.67;50.70;96291.44;4908015;29;20251;-82
2022/08/10 00:50:12;;;;;;;4.32;2.20;;;;;;;20.65;50.95;96296.88;4906428;29;20226;-81
2022/08/10 00:52:40;;;;;;;2.45;2.25;;;;;;;20.56;51.37;96292.19;4907403;29;20230;-82
2022/08/10 00:55:07;;;;;;;2.55;2.35;;;;;;;20.62;50.99;96292.09;4907947;29;20207;-81
2022/08/10 00:57:34;;;;;;;5.55;2.30;;;;;;;20.57;51.30;96299.03;4907915;29;20211;-83
2022/08/10 01:00:00;;;;;;;3.47;2.30;;;;;;;20.51;51.57;96295.47;4906989;29;20295;-83
2022/08/10 01:02:28;;;;;;;3.75;2.40;;;;;;;20.34;51.83;96287.41;4906998;29;20211;-83
2022/08/10 01:04:55;;;;;;;2.85;2.58;;;;;;;20.29;52.15;96295.09;4907227;29;20313;-83
2022/08/10 01:07:39;;;;;;;3.15;2.20;;;;;;;20.44;52.24;96291.31;4908900;29;20693;-81
2022/08/10 01:10:18;;;;;;;2.90;2.35;;;;;;;20.50;51.54;96287.84;4907910;29;20231;-82
2022/08/10 01:12:51;;;;;;;3.72;2.50;;;;;;;20.50;51.90;96288.63;4908029;29;20377;-82
2022/08/10 01:15:24;;;;;;;2.40;2.20;;;;;;;20.50;51.54;96282.59;4908150;29;20218;-82
2022/08/10 01:17:55;;;;;;;2.30;2.10;;;;;;;20.47;51.74;96283.84;4907319;29;20215;-82
2022/08/10 01:20:33;;;;;;;2.40;2.10;;;;;;;20.39;52.00;96286.78;4906881;29;20725;-82
2022/08/10 01:23:25;;;;;;;3.17;2.20;;;;;;;20.39;51.64;96278.94;4909452;29;20259;-83
2022/08/10 01:26:09;;;;;;;2.45;2.25;;;;;;;20.39;51.34;96281.53;4910541;29;20210;-83
2022/08/10 01:28:47;;;;;;;3.25;2.10;;;;;;;20.42;51.08;96281.09;4910048;29;20207;-83
2022/08/10 01:31:20;;;;;;;2.53;2.20;;;;;;;20.36;51.29;96276.72;4909257;29;20255;-83
2022/08/10 01:33:53;;;;;;;5.65;2.35;;;;;;;20.33;51.39;96279.78;4910368;29;20267;-83
2022/08/10 01:36:28;;;;;;;2.55;2.22;;;;;;;20.28;51.83;96282.25;4910840;29;20210;-83
2022/08/10 01:38:59;;;;;;;5.13;2.33;;;;;;;20.37;51.28;96285.41;4910613;29;20261;-81
2022/08/10 01:41:29;;;;;;;2.60;2.40;;;;;;;20.32;51.26;96293.88;4910053;29;20223;-82
2022/08/10 01:44:01;;;;;;;2.58;2.22;;;;;;;20.29;51.45;96296.91;4909506;29;20262;-82
2022/08/10 01:46:30;;;;;;;2.38;2.17;;;;;;;20.24;51.36;96289.72;4909954;29;20266;-81
2022/08/10 01:48:59;;;;;;;2.20;2.00;;;;;;;20.24;51.73;96288.91;4909033;29;20214;-82
2022/08/10 01:51:31;;;;;;;4.72;2.53;;;;;;;20.22;51.42;96278.69;4909978;29;20746;-81
2022/08/10 01:54:02;;;;;;;2.70;2.50;;;;;;;20.05;51.66;96282.09;4909489;29;20245;-81
2022/08/10 01:56:34;;;;;;;3.30;2.58;;;;;;;20.10;51.29;96280.44;4910264;29;20619;-82
2022/08/10 01:59:06;;;;;;;2.80;2.40;;;;;;;20.23;51.25;96287.31;4909741;29;20254;-83
2022/08/10 02:01:39;;;;;;;4.60;2.17;;;;;;;20.25;51.15;96275.63;4908812;29;20235;-82
2022/08/10 02:04:08;;;;;;;3.22;2.47;;;;;;;20.21;50.96;96282.31;4909411;29;20282;-81
2022/08/10 02:06:39;;;;;;;2.80;2.53;;;;;;;20.21;51.57;96281.50;4909431;29;20203;-83
2022/08/10 02:09:07;;;;;;;2.72;2.53;;;;;;;20.19;51.46;96278.34;4909919;29;20837;-83
2022/08/10 02:11:34;;;;;;;2.50;2.30;;;;;;;20.22;51.38;96275.25;4908884;29;20259;-81
2022/08/10 02:14:03;;;;;;;3.78;2.78;;;;;;;20.20;51.48;96279.94;4909101;29;20234;-82
2022/08/10 02:16:32;;;;;;;2.58;2.38;;;;;;;20.25;51.33;96273.00;4909633;29;20258;-82
2022/08/10 02:19:01;;;;;;;3.47;2.20;;;;;;;20.15;51.76;96274.56;4909619;29;20214;-81
2022/08/10 02:21:29;;;;;;;2.20;2.10;;;;;;;20.16;51.69;96273.56;4909020;29;20235;-81
2022/08/10 02:23:59;;;;;;;2.72;2.53;;;;;;;20.11;51.89;96281.25;4908956;29;20234;-82
2022/08/10 02:26:26;;;;;;;5.03;2.45;;;;;;;20.15;51.18;96266.72;4910500;29;20263;-82
2022/08/10 02:28:55;;;;;;;2.95;2.28;;;;;;;20.17;51.99;96269.91;4910631;29;20447;-82
2022/08/10 02:31:23;;;;;;;3.60;2.53;;;;;;;20.01;51.99;96269.47;4909688;29;20246;-81
2022/08/10 02:33:52;;;;;;;4.03;2.50;;;;;;;20.04;51.72;96270.06;4909217;29;20290;-82
2022/08/10 02:36:22;;;;;;;4.20;2.78;;;;;;;19.85;52.41;96274.47;4909947;29;20262;-81
2022/08/10 02:38:52;;;;;;;2.90;2.30;;;;;;;19.68;53.00;96266.41;4910529;29;20556;-82
2022/08/10 02:41:22;;;;;;;2.85;2.53;;;;;;;19.72;53.13;96264.19;4908946;29;20219;-82
2022/08/10 02:43:53;;;;;;;3.33;2.50;;;;;;;19.83;52.72;96273.91;4909509;29;20238;-82
2022/08/10 02:46:26;;;;;;;2.55;2.35;;;;;;;19.83;52.66;96264.25;4909411;29;20231;-82
2022/08/10 02:49:00;;;;;;;2.90;2.70;;;;;;;19.83;52.93;96263.44;4909929;29;20210;-82
2022/08/10 02:51:35;;;;;;;2.90;2.40;;;;;;;19.85;53.16;96269.25;4908786;29;20222;-83
2022/08/10 02:54:07;;;;;;;5.50;2.38;;;;;;;19.85;52.98;96262.22;4908135;29;20230;-81
2022/08/10 02:56:37;;;;;;;3.90;2.42;;;;;;;19.62;53.52;96268.09;4909077;29;20202;-81
2022/08/10 02:59:08;;;;;;;2.97;2.40;;;;;;;19.64;53.55;96266.03;4909764;29;20203;-83
2022/08/10 03:01:41;;;;;;;2.78;2.45;;;;;;;19.63;53.33;96258.41;4908166;29;20290;-83
2022/08/10 03:04:14;;;;;;;2.75;2.50;;;;;;;19.61;53.55;96263.88;4908279;29;20255;-83
2022/08/10 03:06:47;;;;;;;4.57;2.30;;;;;;;19.54;53.59;96255.31;4908681;29;20367;-81
2022/08/10 03:09:16;;;;;;;2.40;2.20;;;;;;;19.49;54.00;96256.94;4908530;29;20214;-82
2022/08/10 03:11:44;;;;;;;3.30;3.00;;;;;;;19.32;54.40;96257.47;4908705;29;20255;-81
2022/08/10 03:14:11;;;;;;;4.68;2.60;;;;;;;19.43;54.01;96256.00;4907472;29;20314;-82
2022/08/10 03:16:39;;;;;;;2.60;2.40;;;;;;;19.44;53.51;96252.34;4908209;29;20206;-81
2022/08/10 03:19:08;;;;;;;2.60;2.40;;;;;;;19.42;53.83;96249.19;4908621;29;20267;-82
2022/08/10 03:21:37;;;;;;;2.75;2.35;;;;;;;19.36;54.11;96252.63;4907775;29;20226;-82
2022/08/10 03:24:08;;;;;;;3.05;2.60;;;;;;;19.40;54.15;96248.59;4908281;29;20234;-81
2022/08/10 03:26:37;;;;;;;2.60;2.38;;;;;;;19.40;54.10;96253.81;4908608;29;20210;-82
2022/08/10 03:29:05;;;;;;;2.60;2.40;;;;;;;19.43;53.89;96255.19;4908156;29;20242;-83
2022/08/10 03:31:33;;;;;;;3.45;2.45;;;;;;;19.36;53.84;96260.47;4907672;29;20711;-82
2022/08/10 03:34:01;;;;;;;2.70;2.50;;;;;;;19.33;53.84;96253.88;4907530;29;20234;-83
2022/08/10 03:36:28;;;;;;;2.70;2.10;;;;;;;19.35;53.84;96252.84;4907519;29;20250;-83
2022/08/10 03:38:55;;;;;;;2.83;2.53;;;;;;;19.39;53.61;96251.41;4909040;29;20211;-83
2022/08/10 03:41:31;;;;;;;3.28;2.35;;;;;;;19.49;53.33;96249.09;4908317;29;20259;-83
2022/08/10 03:43:58;;;;;;;2.80;2.50;;;;;;;19.44;53.40;96248.94;4908183;29;20290;-83
2022/08/10 03:46:27;;;;;;;3.70;2.70;;;;;;;19.42;53.52;96249.19;4907479;29;20234;-82
2022/08/10 03:48:59;;;;;;;2.42;2.22;;;;;;;19.40;53.78;96250.41;4907898;29;20635;-83
2022/08/10 03:51:26;;;;;;;2.80;2.60;;;;;;;19.46;53.45;96249.50;4909116;29;20246;-83
2022/08/10 03:53:53;;;;;;;2.50;2.30;;;;;;;19.46;53.32;96252.13;4907776;29;20314;-83
2022/08/10 03:56:21;;;;;;;5.53;2.72;;;;;;;19.35;53.70;96252.84;4908859;29;20235;-83
2022/08/10 03:58:49;;;;;;;4.10;2.40;;;;;;;19.33;53.73;96247.84;4908213;29;20207;-83
2022/08/10 04:01:16;;;;;;;2.70;2.50;;;;;;;19.23;53.76;96250.94;4907713;29;20647;-83
2022/08/10 04:03:42;;;;;;;5.47;2.70;;;;;;;19.18;53.57;96257.81;4907162;29;20219;-83
2022/08/10 04:06:10;;;;;;;3.55;2.40;;;;;;;19.17;53.64;96256.22;4907543;29;20235;-83
2022/08/10 04:08:40;;;;;;;4.25;2.28;;;;;;;19.23;54.17;96268.44;4907010;29;20207;-83
2022/08/10 04:11:07;;;;;;;2.60;2.40;;;;;;;19.24;53.72;96265.56;4905678;29;20266;-82
2022/08/10 04:13:33;;;;;;;3.63;2.60;;;;;;;19.17;53.88;96270.06;4904906;29;20650;-83
2022/08/10 04:16:01;;;;;;;5.15;2.90;;;;;;;19.18;53.91;96263.84;4906403;29;20199;-82
2022/08/10 04:18:27;;;;;;;2.80;2.60;;;;;;;19.30;53.69;96264.72;4906490;29;20611;-83
2022/08/10 04:21:00;;;;;;;4.82;2.80;;;;;;;19.39;54.69;96264.47;4905445;29;20226;-82
2022/08/10 04:23:30;;;;;;;6.22;2.33;;;;;;;19.58;54.07;96266.94;4904447;29;20443;-82
2022/08/10 04:25:57;;;;;;;2.55;2.30;;;;;;;19.88;54.10;96268.81;4904790;29;20235;-83
2022/08/10 04:28:24;;;;;;;3.50;2.33;;;;;;;20.11;52.80;96268.97;4907431;29;20244;-82
2022/08/10 04:30:53;;;;;;;5.30;2.50;;;;;;;20.22;52.85;96265.59;4902633;29;20219;-83
2022/08/10 04:33:23;;;;;;;4.93;2.65;;;;;;;20.20;51.87;96265.06;4902923;29;20834;-83
2022/08/10 04:35:52;;;;;;;4.82;2.70;;;;;;;20.28;51.73;96266.56;4904310;29;20210;-83
2022/08/10 04:38:19;;;;;;;4.22;2.63;;;;;;;20.40;51.78;96271.88;4892829;29;20211;-83
2022/08/10 04:40:46;;;;;;;2.60;2.40;;;;;;;20.45;51.13;96270.19;4895671;29;20226;-83
2022/08/10 04:43:14;;;;;;;3.15;2.83;;;;;;;20.43;51.47;96274.03;4900156;29;20241;-82
2022/08/10 04:45:41;;;;;;;3.60;2.83;;;;;;;20.44;51.61;96273.00;4899469;29;20266;-83
2022/08/10 04:48:08;;;;;;;4.20;2.58;;;;;;;20.52;51.03;96275.34;4900839;29;20221;-83
2022/08/10 04:50:36;;;;;;;4.20;2.78;;;;;;;20.55;50.47;96274.91;4899033;29;20279;-83
2022/08/10 04:53:02;;;;;;;4.32;2.50;;;;;;;20.59;51.30;96274.22;4898897;29;20230;-83
2022/08/10 04:55:28;;;;;;;5.75;2.80;;;;;;;20.49;50.72;96267.94;4902110;29;20228;-82
2022/08/10 04:57:55;;;;;;;5.10;3.28;;;;;;;20.33;50.66;96272.72;4905612;29;20237;-83
2022/08/10 05:00:21;;;;;;;2.38;2.15;;;;;;;20.40;50.62;96272.66;4906180;29;20230;-83
2022/08/10 05:02:48;;;;;;;4.25;2.63;;;;;;;20.35;51.24;96265.47;4907489;29;20251;-83
2022/08/10 05:05:14;;;;;;;2.72;2.50;;;;;;;20.29;50.84;96270.75;4908695;29;20235;-82
2022/08/10 05:07:42;;;;;;;3.35;2.78;;;;;;;20.11;51.28;96273.41;4908297;29;20325;-83
2022/08/10 05:10:09;;;;;;;4.45;2.70;;;;;;;20.01;51.81;96279.16;4908109;29;20223;-82
2022/08/10 05:12:36;;;;;;;3.88;2.50;;;;;;;19.99;51.78;96274.13;4907935;29;20246;-82
2022/08/10 05:15:03;;;;;;;4.18;2.60;;;;;;;19.83;52.22;96284.34;4907548;29;20206;-82
2022/08/10 05:17:32;;;;;;;4.13;2.58;;;;;;;19.78;52.22;96285.03;4908738;29;20218;-83
2022/08/10 05:19:59;;;;;;;3.20;2.47;;;;;;;19.81;52.06;96284.59;4908911;29;20780;-83
2022/08/10 05:22:25;;;;;;;3.40;2.40;;;;;;;19.84;52.41;96288.56;4907555;29;20214;-81
2022/08/10 05:24:53;;;;;;;3.47;2.60;;;;;;;19.80;52.33;96283.00;4902082;29;20222;-81
2022/08/10 05:27:22;;;;;;;3.47;2.47;;;;;;;19.85;53.58;96285.75;4898710;29;20211;-81
2022/08/10 05:29:48;;;;;;;4.93;2.50;;;;;;;19.85;52.31;96287.56;4893670;29;20807;-81
2022/08/10 05:32:15;;;;;;;2.85;2.65;;;;;;;19.98;52.51;96277.78;4890326;29;20203;-81
2022/08/10 05:34:41;;;;;;;4.63;2.47;;;;;;;20.06;52.33;96276.66;4889977;29;20290;-81
2022/08/10 05:37:09;;;;;;;6.00;5.47;;;;;;;20.12;52.24;96288.88;4889025;29;20263;-82
2022/08/10 05:39:36;;;;;;;12.30;10.48;;;;;;;20.22;51.88;96283.09;4889397;29;20236;-83
2022/08/10 05:42:05;;;;;;;6.03;4.57;;;;;;;20.20;51.71;96285.97;4891303;29;20248;-82
2022/08/10 05:44:34;;;;;;;6.72;5.82;;;;;;;20.37;51.98;96282.78;4893018;29;20250;-82
2022/08/10 05:47:01;;;;;;;7.18;5.03;;;;;;;20.41;51.78;96283.91;4891480;29;20240;-81
2022/08/10 05:49:28;;;;;;;3.60;2.60;;;;;;;20.48;51.07;96290.66;4892451;29;20218;-81
2022/08/10 05:51:54;;;;;;;4.93;3.92;;;;;;;20.40;51.45;96283.13;4888855;29;20235;-82
2022/08/10 05:54:21;;;;;;;3.30;3.00;;;;;;;20.48;51.47;96284.63;4887948;29;20236;-82
2022/08/10 05:56:49;;;;;;;4.53;2.30;;;;;;;20.40;51.10;96287.56;4889425;29;20204;-81
2022/08/10 05:59:17;;;;;;;2.70;2.50;;;;;;;20.33;51.08;96287.63;4887821;29;20623;-81
2022/08/10 06:01:44;;;;;;;4.15;3.00;;;;;;;20.32;51.19;96286.03;4887635;29;20249;-81
2022/08/10 06:04:17;;;;;;;5.30;2.80;;;;;;;20.22;51.53;96294.38;4891060;29;20778;-81
2022/08/10 06:06:46;;;;;;;4.43;2.50;;;;;;;20.15;51.80;96301.50;4905809;29;20206;-81
2022/08/10 06:09:15;;;;;;;3.88;2.60;;;;;;;20.07;51.96;96293.16;4905919;29;20206;-81
2022/08/10 06:11:44;;;;;;;4.03;2.53;;;;;;;20.07;52.21;96299.19;4906745;29;20250;-81
2022/08/10 06:16:59;;;;;;;2.60;2.40;;;;;;;20.24;51.99;96291.53;4907264;29;20239;-81
2022/08/10 06:19:27;;;;;;;13.07;11.60;;;;;;;20.35;52.70;96293.44;4899045;29;20290;-80
2022/08/10 06:21:56;;;;;;;10.15;7.40;;;;;;;20.60;51.46;96288.88;4905420;29;20215;-80
2022/08/10 06:24:25;;;;;;;5.95;3.85;;;;;;;20.63;51.62;96290.28;4905165;29;20290;-80
2022/08/10 06:26:51;;;;;;;10.27;9.23;;;;;;;20.78;51.37;96288.06;4904757;29;20213;-81
2022/08/10 06:29:19;;;;;;;6.38;3.25;;;;;;;20.79;51.14;96288.84;4904013;29;20210;-80
2022/08/10 06:31:50;;;;;;;6.03;5.03;;;;;;;20.91;51.29;96287.88;4903255;29;20206;-81
2022/08/10 06:34:22;;;;;;;4.88;3.10;;;;;;;20.97;51.02;96283.56;4903853;29;20432;-82
2022/08/10 06:36:49;;;;;;;5.18;3.00;;;;;;;21.11;51.19;96282.34;4903896;29;20337;-80
2022/08/10 06:39:16;;;;;;;3.33;2.72;;;;;;;21.11;50.54;96278.91;4902852;29;20214;-81
2022/08/10 06:41:48;;;;;;;2.78;2.30;;;;;;;21.05;50.61;96275.38;4902887;29;20809;-82
2022/08/10 06:44:21;;;;;;;5.03;2.58;;;;;;;20.95;51.00;96270.69;4902855;29;20253;-81
2022/08/10 06:46:50;;;;;;;3.45;2.40;;;;;;;20.88;50.87;96274.44;4904768;29;20227;-81
2022/08/10 06:49:22;;;;;;;2.75;2.55;;;;;;;20.85;50.73;96275.66;4904537;29;20254;-81
2022/08/10 06:51:53;;;;;;;3.60;2.40;;;;;;;20.83;51.41;96269.06;4905129;29;20203;-80
2022/08/10 06:54:23;;;;;;;5.78;2.53;;;;;;;20.91;51.55;96274.78;4904715;29;20250;-81
2022/08/10 06:56:52;;;;;;;3.20;2.28;;;;;;;20.91;51.14;96276.59;4904255;29;20254;-80
2022/08/10 06:59:21;;;;;;;3.15;2.10;;;;;;;21.10;51.73;96274.69;4903961;29;20234;-80
2022/08/10 07:01:52;;;;;;;2.25;2.05;;;;;;;21.19;51.16;96281.19;4903624;29;20263;-81
2022/08/10 07:04:24;;;;;;;5.22;3.65;;;;;;;21.34;51.11;96274.53;4903879;29;20235;-81
2022/08/10 07:06:51;;;;;;;5.22;2.95;;;;;;;21.40;50.55;96267.56;4905370;29;20253;-81
2022/08/10 07:09:22;;;;;;;3.53;2.80;;;;;;;21.45;50.11;96278.19;4905009;29;20274;-81
2022/08/10 07:11:51;;;;;;;4.32;2.30;;;;;;;21.49;50.04;96270.66;4905019;29;20263;-81
2022/08/10 07:14:20;;;;;;;3.90;2.55;;;;;;;21.44;50.19;96276.59;4905533;29;20237;-81
2022/08/10 07:16:47;;;;;;;2.58;2.10;;;;;;;21.51;49.87;96266.78;4905622;29;20195;-81
2022/08/10 07:19:15;;;;;;;3.28;2.35;;;;;;;21.71;49.72;96261.19;4900128;29;20275;-82
2022/08/10 07:21:45;;;;;;;3.72;2.10;;;;;;;21.86;48.92;96255.47;4887420;29;20231;-81
2022/08/10 07:24:14;;;;;;;2.00;1.70;;;;;;;21.88;48.70;96258.66;4886976;29;20667;-82
2022/08/10 07:26:46;;;;;;;4.50;2.20;;;;;;;21.91;48.54;96252.97;4902231;29;20230;-82
2022/08/10 07:29:18;;;;;;;5.15;2.35;;;;;;;21.96;48.58;96251.22;4905361;29;20210;-82
2022/08/10 07:31:48;;;;;;;2.65;1.88;;;;;;;22.10;47.98;96248.38;4905862;29;20209;-82
2022/08/10 07:34:17;;;;;;;3.75;2.17;;;;;;;22.12;47.76;96241.09;4905799;29;20242;-81
2022/08/10 07:36:48;;;;;;;3.30;1.80;;;;;;;22.24;48.28;96242.63;4908172;29;20206;-80
2022/08/10 07:39:16;;;;;;;3.78;1.98;;;;;;;22.38;48.28;96248.41;4907310;29;20217;-81
2022/08/10 07:41:46;;;;;;;1.83;1.70;;;;;;;22.55;48.50;96251.84;4906716;29;20255;-82
2022/08/10 07:44:14;;;;;;;6.25;2.22;;;;;;;22.62;47.07;96244.66;4906812;29;20238;-82
2022/08/10 07:46:46;;;;;;;3.65;2.10;;;;;;;22.61;46.37;96247.50;4906445;29;20604;-82
2022/08/10 07:49:18;;;;;;;3.13;2.10;;;;;;;22.66;47.41;96247.59;4906139;29;20213;-82
2022/08/10 07:51:48;;;;;;;2.67;1.83;;;;;;;22.83;47.18;96250.28;4904697;29;20235;-82
2022/08/10 07:54:15;;;;;;;5.72;2.20;;;;;;;22.98;47.01;96253.94;4903640;29;20357;-81
2022/08/10 07:56:46;;;;;;;4.53;2.00;;;;;;;22.97;46.31;96247.09;4904311;29;20209;-82
2022/08/10 07:59:17;;;;;;;5.13;1.83;;;;;;;22.85;44.64;96249.00;4904425;29;20267;-82
2022/08/10 08:01:49;;;;;;;2.15;1.95;;;;;;;22.86;45.18;96250.59;4903855;29;20227;-82
2022/08/10 08:04:18;;;;;;;5.07;3.63;;;;;;;22.94;45.39;96246.78;4905613;29;20732;-81
2022/08/10 08:06:47;;;;;;;5.57;2.35;;;;;;;23.13;44.98;96245.50;4905737;29;20229;-82
2022/08/10 08:09:14;;;;;;;3.88;2.05;;;;;;;23.24;44.11;96243.84;4906298;29;20218;-81
2022/08/10 08:11:43;;;;;;;3.15;2.28;;;;;;;23.34;44.50;96244.00;4904828;29;20309;-81
2022/08/10 08:14:11;;;;;;;5.00;2.20;;;;;;;23.59;44.67;96247.03;4905285;29;20238;-82
2022/08/10 08:16:41;;;;;;;3.92;1.90;;;;;;;23.76;44.06;96253.03;4904527;29;20203;-81
2022/08/10 08:19:08;;;;;;;3.25;2.05;;;;;;;23.91;43.79;96249.00;4900563;29;20215;-81
2022/08/10 08:21:35;;;;;;;3.47;1.95;;;;;;;23.99;42.93;96245.97;4890913;29;20258;-82
2022/08/10 08:24:04;;;;;;;3.25;1.95;;;;;;;24.03;41.61;96247.06;4904696;29;20290;-81
2022/08/10 08:26:31;;;;;;;6.03;1.80;;;;;;;23.97;41.26;96250.69;4904594;29;20263;-82
2022/08/10 08:28:58;;;;;;;4.45;1.90;;;;;;;24.06;41.48;96249.97;4886423;29;20251;-82
2022/08/10 08:31:26;;;;;;;2.90;1.73;;;;;;;24.22;41.68;96248.34;4901649;29;20722;-82
2022/08/10 08:33:55;;;;;;;3.83;1.80;;;;;;;24.22;40.07;96242.28;4905968;29;20250;-81
2022/08/10 08:36:23;;;;;;;4.63;1.80;;;;;;;24.15;40.15;96247.72;4906593;29;20214;-82
2022/08/10 08:38:51;;;;;;;2.38;1.60;;;;;;;24.20;40.20;96247.81;4907343;29;20614;-81
2022/08/10 08:41:45;;;;;;;4.32;1.80;;;;;;;24.38;39.73;96244.06;4906128;29;20262;-82
2022/08/10 08:44:23;;;;;;;2.03;1.70;;;;;;;24.47;39.29;96250.47;4905333;29;20293;-82
2022/08/10 08:47:05;;;;;;;2.42;1.77;;;;;;;24.44;38.91;96253.59;4906239;29;20286;-82
2022/08/10 08:49:48;;;;;;;4.30;1.60;;;;;;;24.33;38.27;96247.44;4906660;29;20203;-82
2022/08/10 08:52:27;;;;;;;2.35;1.90;;;;;;;24.33;38.35;96238.75;4906847;29;20400;-83
2022/08/10 08:55:03;;;;;;;5.78;1.90;;;;;;;24.46;38.15;96240.97;4901481;29;20230;-81
2022/08/10 08:57:47;;;;;;;8.95;8.15;;;;;;;24.63;37.60;96238.28;4892528;29;20847;-79
2022/08/10 09:00:18;;;;;;;4.25;2.08;;;;;;;24.70;37.67;96247.56;4896543;29;20313;-81
2022/08/10 09:03:10;;;;;;;1.50;1.40;;;;;;;24.72;37.50;96239.41;4899387;29;20234;-80
2022/08/10 09:05:47;;;;;;;3.40;1.80;;;;;;;25.02;37.79;96244.16;4891705;29;20226;-81
2022/08/10 09:08:27;;;;;;;2.38;1.60;;;;;;;25.09;36.93;96247.38;4900957;29;20221;-81
2022/08/10 09:10:59;;;;;;;2.75;1.52;;;;;;;25.25;37.38;96250.94;4898705;29;20650;-81
2022/08/10 09:13:32;;;;;;;3.83;1.75;;;;;;;25.39;37.22;96241.56;4899445;29;20242;-80
2022/08/10 09:16:22;;;;;;;4.32;1.60;;;;;;;25.41;36.83;96237.59;4898426;29;20718;-81
2022/08/10 09:18:53;;;;;;;3.17;1.67;;;;;;;25.39;36.25;96229.19;4897532;29;20218;-81
2022/08/10 09:21:29;;;;;;;5.13;1.63;;;;;;;25.52;36.38;96230.56;4879555;29;20227;-80
2022/08/10 09:24:02;;;;;;;1.77;1.67;;;;;;;25.66;36.49;96228.28;4880246;29;20283;-81
2022/08/10 09:26:38;;;;;;;3.20;1.60;;;;;;;25.42;35.85;96244.47;4885952;29;20231;-81
2022/08/10 09:29:09;;;;;;;3.38;1.50;;;;;;;25.40;36.01;96248.44;4900505;29;20217;-80
2022/08/10 09:31:45;;;;;;;3.22;1.75;;;;;;;25.42;35.42;96243.66;4900483;29;20968;-81
2022/08/10 09:34:18;;;;;;;2.88;1.90;;;;;;;25.33;35.41;96240.72;4903245;29;20622;-82
2022/08/10 09:36:58;;;;;;;5.28;1.50;;;;;;;25.38;35.92;96234.69;4903899;29;20214;-81
2022/08/10 09:39:33;;;;;;;4.18;1.65;;;;;;;25.58;37.13;96244.59;4903533;29;20717;-81
2022/08/10 09:42:08;;;;;;;4.80;1.58;;;;;;;25.62;37.09;96230.63;4901187;29;20206;-81
2022/08/10 09:44:45;;;;;;;1.60;1.50;;;;;;;25.81;37.40;96229.16;4903251;29;20238;-81
2022/08/10 09:47:19;;;;;;;2.97;1.70;;;;;;;25.76;35.44;96233.63;4903057;29;20266;-82
2022/08/10 09:50:02;;;;;;;18.52;16.73;;;;;;;25.92;35.35;96234.50;4902838;29;20274;-81
2022/08/10 09:52:34;;;;;;;2.15;1.73;;;;;;;26.01;35.33;96236.38;4902566;29;20203;-81
2022/08/10 09:55:11;;;;;;;2.10;1.50;;;;;;;26.27;35.85;96234.63;4902237;29;20206;-81
2022/08/10 09:57:49;;;;;;;2.25;1.58;;;;;;;26.41;35.13;96242.88;4882500;29;20239;-81
2022/08/10 10:00:20;;;;;;;3.28;1.50;;;;;;;26.40;34.44;96223.59;4884260;29;20242;-81
2022/08/10 10:02:57;;;;;;;3.75;1.70;;;;;;;26.52;34.80;96226.00;4900979;29;20657;-80
2022/08/10 10:05:39;;;;;;;2.25;1.50;;;;;;;26.68;35.01;96232.09;4882489;29;20218;-82
2022/08/10 10:08:14;;;;;;;3.22;1.73;;;;;;;26.79;35.34;96223.91;4894627;29;20683;-81
2022/08/10 10:10:53;;;;;;;2.17;1.40;;;;;;;26.99;35.02;96232.94;4901224;29;20226;-81
2022/08/10 10:13:31;;;;;;;2.22;1.40;;;;;;;26.85;34.43;96230.00;4901624;29;20289;-80
2022/08/10 10:16:08;;;;;;;4.13;1.77;;;;;;;26.96;34.36;96226.31;4900900;29;20975;-81
2022/08/10 10:18:44;;;;;;;3.00;1.67;;;;;;;26.98;34.73;96221.56;4902009;29;20220;-82
2022/08/10 10:21:20;;;;;;;4.03;1.55;;;;;;;26.94;34.71;96219.72;4881849;29;20318;-81
2022/08/10 10:23:56;;;;;;;1.70;1.35;;;;;;;26.80;33.84;96222.84;4895047;29;20234;-82
2022/08/10 10:26:31;;;;;;;5.38;1.50;;;;;;;26.74;34.74;96228.41;4900401;29;20232;-81
2022/08/10 10:29:08;;;;;;;1.50;1.20;;;;;;;26.68;34.05;96226.81;4901313;29;20714;-81
2022/08/10 10:31:41;;;;;;;3.47;1.58;;;;;;;26.89;34.60;96225.78;4902473;29;20290;-81
2022/08/10 10:34:17;;;;;;;2.35;1.48;;;;;;;26.90;33.81;96222.09;4906601;29;20233;-80
2022/08/10 10:36:45;;;;;;;4.45;1.52;;;;;;;27.00;34.22;96216.03;4923013;29;20209;-81
2022/08/10 10:39:13;;;;;;;2.78;1.58;;;;;;;27.07;33.29;96216.56;4922064;29;20680;-83
2022/08/10 10:41:47;;;;;;;2.92;1.52;;;;;;;27.21;33.65;96220.25;4916383;29;20240;-83
2022/08/10 10:44:31;;;;;;;2.60;1.20;;;;;;;27.21;33.59;96211.53;4916291;29;20238;-83
2022/08/10 10:47:14;;;;;;;3.53;1.40;;;;;;;27.37;34.11;96223.66;4916788;29;20649;-83
2022/08/10 10:49:49;;;;;;;2.83;1.40;;;;;;;27.31;34.08;96216.81;4917705;29;20273;-83
2022/08/10 10:52:26;;;;;;;7.97;7.22;;;;;;;27.21;34.15;96207.03;4917171;29;20210;-83
2022/08/10 10:55:02;;;;;;;4.70;2.10;;;;;;;27.31;34.15;96206.22;4916953;29;20222;-83
2022/08/10 10:57:37;;;;;;;1.88;1.70;;;;;;;27.16;34.10;96220.25;4916992;29;20234;-82
2022/08/10 11:00:07;;;;;;;3.22;1.38;;;;;;;26.77;34.37;96214.66;4897869;29;20672;-83
2022/08/10 11:02:50;;;;;;;2.30;1.55;;;;;;;26.65;34.56;96220.22;4898281;29;20211;-83
2022/08/10 11:05:29;;;;;;;1.73;1.40;;;;;;;26.51;35.01;96213.06;4898579;29;20210;-83
2022/08/10 11:07:59;;;;;;;3.55;1.50;;;;;;;26.75;35.59;96219.41;4898690;29;20230;-83
2022/08/10 11:10:31;;;;;;;2.95;1.83;;;;;;;26.74;35.00;96220.50;4897736;29;20242;-83
2022/08/10 11:13:12;;;;;;;3.85;1.70;;;;;;;26.91;34.51;96217.59;4879137;29;20775;-83
2022/08/10 11:15:46;;;;;;;1.42;1.33;;;;;;;26.90;34.72;96223.94;4882977;29;20206;-83
2022/08/10 11:18:24;;;;;;;2.13;1.60;;;;;;;26.89;34.26;96225.00;4898581;29;20211;-83
2022/08/10 11:20:57;;;;;;;2.47;1.58;;;;;;;27.00;33.96;96216.81;4892632;29;20269;-83
2022/08/10 11:23:34;;;;;;;1.80;1.40;;;;;;;26.94;33.91;96220.50;4897580;29;20601;-83
2022/08/10 11:26:07;;;;;;;2.00;1.60;;;;;;;27.14;34.34;96228.44;4897807;29;20210;-83
2022/08/10 11:28:40;;;;;;;2.00;1.38;;;;;;;27.07;34.04;96225.28;4898411;29;20213;-83
2022/08/10 11:31:13;;;;;;;8.95;1.50;;;;;;;27.11;34.41;96225.56;4896538;29;20226;-82
2022/08/10 11:33:48;;;;;;;1.55;1.45;;;;;;;27.03;33.70;96218.94;4897529;29;20230;-83
2022/08/10 11:36:21;;;;;;;3.13;1.52;;;;;;;27.23;34.33;96228.72;4897699;29;20305;-83
2022/08/10 11:38:57;;;;;;;3.70;1.63;;;;;;;27.61;34.27;96215.97;4896600;29;20222;-83
2022/08/10 11:41:32;;;;;;;2.67;1.52;;;;;;;27.58;33.55;96227.09;4898285;29;20230;-83
2022/08/10 11:44:08;;;;;;;1.85;1.50;;;;;;;27.25;33.49;96216.03;4897409;29;20241;-83
2022/08/10 11:46:39;;;;;;;1.90;1.52;;;;;;;27.17;34.04;96222.63;4895949;29;20222;-83
2022/08/10 11:49:11;;;;;;;12.07;10.70;;;;;;;27.06;34.30;96223.69;4896282;29;20249;-82
2022/08/10 11:51:44;;;;;;;3.95;2.92;;;;;;;27.06;34.47;96226.34;4895281;29;20227;-82
2022/08/10 11:54:19;;;;;;;3.35;1.65;;;;;;;26.84;33.77;96225.78;4894523;29;20743;-82